Time;durP1;ratioP1;P1;durP2;ratioP2;P2;SDS_P1;SDS_P2;PMS_P1;PMS_P2;Temp;Humidity;BMP_temperature;BMP_pressure;BME280_temperature;BME280_humidity;BME280_pressure;Samples;Min_cycle;Max_cycle;Signal;HPM_P1;HPM_P2
2022/05/10 00:02:12;;;;;;;4.47;2.87;;;;;;;7.33;61.15;101476.61;1821401;78;21406;-86
2022/05/10 00:04:39;;;;;;;12.03;3.20;;;;;;;7.25;61.42;101479.02;1821068;78;20897;-85
2022/05/10 00:07:05;;;;;;;5.83;2.10;;;;;;;7.19;61.31;101483.12;1821497;78;20917;-85
2022/05/10 00:09:32;;;;;;;3.35;2.15;;;;;;;7.14;61.36;101488.10;1821154;78;20858;-86
2022/05/10 00:11:59;;;;;;;6.28;2.98;;;;;;;7.03;61.42;101484.06;1821196;78;21395;-84
2022/05/10 00:14:27;;;;;;;3.62;1.90;;;;;;;6.94;61.64;101491.33;1821455;78;21056;-85
2022/05/10 00:16:53;;;;;;;3.92;2.27;;;;;;;6.85;61.67;101485.48;1820929;78;20957;-85
2022/05/10 00:19:21;;;;;;;3.37;2.58;;;;;;;6.79;61.91;101480.91;1821472;78;20845;-86
2022/05/10 00:21:47;;;;;;;6.00;2.40;;;;;;;6.74;62.32;101485.42;1820988;78;20842;-84
2022/05/10 00:24:16;;;;;;;5.47;2.12;;;;;;;6.68;62.52;101476.47;1821293;78;20889;-86
2022/05/10 00:26:45;;;;;;;4.50;1.80;;;;;;;6.65;62.65;101480.03;1820921;78;21917;-86
2022/05/10 00:29:11;;;;;;;6.20;2.52;;;;;;;6.62;62.91;101484.01;1820365;78;21162;-86
2022/05/10 00:31:38;;;;;;;1.92;1.72;;;;;;;6.60;63.18;101487.11;1818004;78;20928;-86
2022/05/10 00:34:04;;;;;;;1.95;1.75;;;;;;;6.59;63.09;101483.66;1818051;78;20989;-86
2022/05/10 00:36:32;;;;;;;3.02;2.08;;;;;;;6.54;62.91;101485.55;1817891;79;20887;-84
2022/05/10 00:38:58;;;;;;;4.53;1.80;;;;;;;6.51;62.95;101499.11;1789556;79;21303;-85
2022/05/10 00:41:55;;;;;;;5.45;1.67;;;;;;;6.48;62.91;101494.00;1818920;78;21471;-85
2022/05/10 00:44:35;;;;;;;3.72;1.92;;;;;;;6.42;62.83;101497.19;1700100;83;20896;-85
2022/05/10 00:47:26;;;;;;;3.85;1.90;;;;;;;6.37;62.63;101502.11;1702556;82;20948;-83
2022/05/10 00:50:10;;;;;;;4.55;1.60;;;;;;;6.34;62.46;101497.84;1701014;84;21046;-83
2022/05/10 00:53:00;;;;;;;6.22;1.67;;;;;;;6.29;61.99;101502.34;1746238;81;21989;-85
2022/05/10 00:55:37;;;;;;;2.17;1.55;;;;;;;6.22;61.70;101502.96;1745283;81;20951;-87
2022/05/10 00:58:38;;;;;;;4.95;1.70;;;;;;;6.14;61.55;101502.31;1745366;82;20963;-84
2022/05/10 01:01:05;;;;;;;4.58;1.42;;;;;;;6.10;61.32;101500.68;1746244;81;21003;-85
2022/05/10 01:03:37;;;;;;;10.10;1.90;;;;;;;6.04;60.94;101496.08;1745705;81;21026;-85
2022/05/10 01:06:27;;;;;;;5.12;1.72;;;;;;;6.01;61.47;101499.63;1745757;81;21177;-86
2022/05/10 01:09:08;;;;;;;8.00;1.98;;;;;;;6.00;61.78;101501.81;1745229;81;20904;-85
2022/05/10 01:11:56;;;;;;;2.33;1.77;;;;;;;6.00;62.19;101501.39;1745414;81;21014;-85
2022/05/10 01:14:31;;;;;;;2.42;1.80;;;;;;;6.02;62.40;101507.83;1758074;77;21026;-85
2022/05/10 01:16:58;;;;;;;3.22;1.55;;;;;;;6.00;62.55;101501.81;1858648;77;20972;-85
2022/05/10 01:19:24;;;;;;;2.77;1.37;;;;;;;5.97;62.64;101505.36;1858922;77;21199;-84
2022/05/10 01:22:11;;;;;;;4.20;1.70;;;;;;;5.91;62.83;101507.23;1858464;77;20822;-85
2022/05/10 01:24:59;;;;;;;5.53;2.10;;;;;;;5.85;63.18;101500.88;1828430;77;20928;-85
2022/05/10 01:28:00;;;;;;;5.75;1.60;;;;;;;5.77;63.38;101500.64;1858475;77;20870;-83
2022/05/10 01:30:29;;;;;;;5.03;1.82;;;;;;;5.72;63.60;101495.16;1831278;77;20901;-85
2022/05/10 01:33:31;;;;;;;6.45;1.92;;;;;;;5.66;63.88;101497.91;1855829;77;21259;-85
2022/05/10 01:36:13;;;;;;;2.30;1.70;;;;;;;5.62;63.84;101498.42;1856001;77;20866;-85
2022/05/10 01:39:02;;;;;;;6.58;1.22;;;;;;;5.61;63.96;101486.33;1857701;77;20873;-85
2022/05/10 01:44:43;;;;;;;3.60;1.60;;;;;;;5.67;63.06;101491.37;1816485;79;23236;-85
2022/05/10 01:47:14;;;;;;;3.67;1.85;;;;;;;5.66;62.95;101496.16;1790058;80;20927;-84
2022/05/10 01:49:52;;;;;;;6.55;2.65;;;;;;;5.69;63.05;101497.40;1790488;80;21180;-85
2022/05/10 01:52:27;;;;;;;4.33;1.95;;;;;;;5.71;63.27;101504.69;1789628;79;20919;-85
2022/05/10 01:55:28;;;;;;;4.28;2.10;;;;;;;5.67;63.20;101503.51;1789630;80;20951;-85
2022/05/10 01:57:58;;;;;;;2.55;1.80;;;;;;;5.65;63.37;101506.17;1789451;80;21418;-85
2022/05/10 02:00:27;;;;;;;3.08;1.30;;;;;;;5.59;63.68;101507.62;1789541;80;20939;-84
2022/05/10 02:03:00;;;;;;;3.47;1.98;;;;;;;5.52;63.96;101503.02;1789512;80;21284;-84
2022/05/10 02:05:50;;;;;;;2.27;1.20;;;;;;;5.43;64.34;101498.05;1789594;80;20868;-84
2022/05/10 02:08:31;;;;;;;1.50;1.40;;;;;;;5.37;64.47;101499.48;1789733;79;21374;-85
2022/05/10 02:11:01;;;;;;;3.83;1.50;;;;;;;5.28;64.20;101497.95;1789969;80;20923;-85
2022/05/10 02:13:32;;;;;;;4.90;1.57;;;;;;;5.25;64.06;101502.40;1758943;80;21426;-85
2022/05/10 02:16:19;;;;;;;5.92;1.85;;;;;;;5.24;64.36;101506.72;1789286;80;21948;-84
2022/05/10 02:18:54;;;;;;;2.98;1.67;;;;;;;5.26;64.57;101504.09;1789912;80;20986;-86
2022/05/10 02:21:26;;;;;;;5.50;2.27;;;;;;;5.25;64.76;101498.05;1790834;80;20888;-84
2022/05/10 02:24:03;;;;;;;2.15;1.10;;;;;;;5.29;64.91;101502.28;1789758;80;20877;-85
2022/05/10 02:26:50;;;;;;;3.37;1.37;;;;;;;5.32;64.76;101502.20;1790524;80;20915;-85
2022/05/10 02:29:45;;;;;;;5.12;1.70;;;;;;;5.35;64.69;101499.52;1792868;80;21428;-82
2022/05/10 02:35:11;;;;;;;6.80;2.37;;;;;;;5.40;64.44;101503.30;1788447;80;20887;-85
2022/05/10 02:37:37;;;;;;;2.90;1.90;;;;;;;5.40;64.30;101509.80;1789702;80;21442;-84
2022/05/10 02:40:05;;;;;;;6.00;2.98;;;;;;;5.40;64.41;101510.68;1790199;80;21445;-84
2022/05/10 02:42:34;;;;;;;3.35;1.70;;;;;;;5.38;64.52;101507.26;1786277;79;21266;-84
2022/05/10 02:45:03;;;;;;;4.05;1.75;;;;;;;5.36;64.60;101511.64;1768735;81;21419;-85
2022/05/10 02:47:42;;;;;;;3.02;2.05;;;;;;;5.33;64.60;101511.70;1768975;81;20896;-84
2022/05/10 02:50:28;;;;;;;6.20;1.67;;;;;;;5.31;64.73;101513.92;1768768;80;20897;-84
2022/05/10 02:52:55;;;;;;;3.87;1.75;;;;;;;5.25;64.73;101516.25;1768897;80;20956;-84
2022/05/10 02:55:30;;;;;;;3.40;1.65;;;;;;;5.20;65.03;101520.67;1768402;81;21117;-85
2022/05/10 02:58:00;;;;;;;2.85;1.72;;;;;;;5.18;65.31;101528.53;1767659;81;20983;-84
2022/05/10 03:00:26;;;;;;;2.15;1.30;;;;;;;5.18;65.67;101523.78;1768332;80;20992;-84
2022/05/10 03:02:56;;;;;;;4.62;2.20;;;;;;;5.18;66.04;101519.89;1768407;81;20975;-85
2022/05/10 03:05:23;;;;;;;6.03;2.00;;;;;;;5.18;66.26;101521.19;1768512;81;20960;-86
2022/05/10 03:07:53;;;;;;;1.57;1.32;;;;;;;5.19;66.38;101524.18;1768596;80;21205;-85
2022/05/10 03:10:21;;;;;;;5.17;1.80;;;;;;;5.24;66.37;101524.92;1768337;81;21047;-86
2022/05/10 03:12:47;;;;;;;7.05;2.80;;;;;;;5.32;66.41;101524.30;1768610;81;20889;-85
2022/05/10 03:15:13;;;;;;;6.67;2.60;;;;;;;5.39;66.38;101527.61;1769624;80;21011;-84
2022/05/10 03:17:40;;;;;;;3.70;2.58;;;;;;;5.49;66.24;101526.52;1768616;80;21044;-85
2022/05/10 03:20:07;;;;;;;5.47;1.90;;;;;;;5.61;66.14;101529.25;1768282;81;21134;-84
2022/05/10 03:22:34;;;;;;;12.82;2.20;;;;;;;5.72;65.83;101530.30;1768179;81;20956;-84
2022/05/10 03:25:01;;;;;;;7.40;3.85;;;;;;;5.80;65.55;101531.81;1768677;81;21571;-85
2022/05/10 03:27:29;;;;;;;6.33;2.72;;;;;;;5.88;65.24;101532.05;1768380;80;21425;-84
2022/05/10 03:29:56;;;;;;;4.58;2.20;;;;;;;5.93;65.01;101531.48;1768415;81;20936;-84
2022/05/10 03:32:22;;;;;;;4.40;2.02;;;;;;;5.99;64.73;101537.87;1768763;81;21219;-85
2022/05/10 03:34:54;;;;;;;2.20;1.95;;;;;;;6.01;64.47;101539.53;1768617;80;20849;-84
2022/05/10 03:37:24;;;;;;;6.90;2.20;;;;;;;6.05;64.01;101541.63;1768553;81;20838;-85
2022/05/10 03:39:50;;;;;;;5.97;4.83;;;;;;;6.12;63.55;101541.86;1768750;81;20928;-84
2022/05/10 03:42:19;;;;;;;6.00;2.37;;;;;;;6.18;62.98;101545.61;1768390;80;21410;-85
2022/05/10 03:44:50;;;;;;;2.80;1.90;;;;;;;6.27;62.63;101543.20;1775066;80;21406;-85
2022/05/10 03:47:17;;;;;;;4.67;2.12;;;;;;;6.34;62.27;101547.34;1775647;80;20998;-84
2022/05/10 03:49:48;;;;;;;5.30;1.67;;;;;;;6.43;62.34;101544.94;1775693;80;20881;-85
2022/05/10 03:52:14;;;;;;;3.92;1.55;;;;;;;6.53;62.13;101552.88;1775494;80;20984;-85
2022/05/10 03:54:42;;;;;;;6.17;1.80;;;;;;;6.63;62.29;101551.73;1775755;80;21378;-85
2022/05/10 03:57:08;;;;;;;7.62;2.30;;;;;;;6.76;62.33;101550.94;1775489;80;21084;-84
2022/05/10 03:59:41;;;;;;;3.90;2.42;;;;;;;6.88;62.21;101544.50;1775483;80;21434;-85
2022/05/10 04:02:03;;;;;;;8.58;2.15;;;;;;;7.01;62.09;101541.93;1775162;80;21026;-84
2022/05/10 04:04:30;;;;;;;4.50;1.95;;;;;;;7.13;61.70;101543.77;1738601;82;21367;-85
2022/05/10 04:06:57;;;;;;;3.77;2.08;;;;;;;7.27;61.23;101541.59;1775945;80;20976;-84
2022/05/10 04:09:23;;;;;;;3.72;2.20;;;;;;;7.41;60.56;101542.45;1738574;82;21279;-84
2022/05/10 04:11:50;;;;;;;3.33;1.50;;;;;;;7.58;59.60;101537.98;1775699;80;20889;-84
2022/05/10 04:14:16;;;;;;;3.70;1.50;;;;;;;7.77;58.74;101539.54;1775726;80;20959;-85
2022/05/10 04:16:42;;;;;;;5.22;1.72;;;;;;;8.04;57.83;101545.58;1738753;82;20956;-85
2022/05/10 04:19:09;;;;;;;3.30;1.40;;;;;;;8.49;56.66;101548.37;1775406;80;20829;-84
2022/05/10 04:21:38;;;;;;;1.72;1.55;;;;;;;9.15;54.87;101537.16;1775563;80;21162;-83
2022/05/10 04:24:06;;;;;;;10.18;1.95;;;;;;;9.90;51.61;101543.73;1739247;82;20949;-84
2022/05/10 04:26:38;;;;;;;6.28;1.55;;;;;;;10.60;49.47;101539.81;1775624;80;20963;-83
2022/05/10 04:29:03;;;;;;;2.62;1.22;;;;;;;11.26;48.38;101538.05;1738116;82;20987;-83
2022/05/10 04:31:31;;;;;;;2.35;1.45;;;;;;;11.95;47.05;101540.39;1775898;80;20931;-84
2022/05/10 04:33:58;;;;;;;2.25;2.05;;;;;;;12.58;45.49;101543.67;1775374;80;21118;-85
2022/05/10 04:36:25;;;;;;;2.77;1.52;;;;;;;13.60;43.56;101541.07;1738638;82;20940;-84
2022/05/10 04:38:53;;;;;;;3.62;1.77;;;;;;;14.04;42.60;101533.66;1774171;80;20877;-85
2022/05/10 04:41:29;;;;;;;2.37;1.35;;;;;;;14.40;41.79;101536.80;1738659;82;20949;-85
2022/05/10 04:44:02;;;;;;;4.20;1.82;;;;;;;14.40;41.79;101536.80;1772146;80;21399;-85
2022/05/10 04:46:31;;;;;;;2.72;1.32;;;;;;;14.65;41.12;101533.50;1768790;81;21349;-85
2022/05/10 04:48:59;;;;;;;1.82;1.52;;;;;;;14.91;40.81;101531.87;1768517;80;21395;-85
2022/05/10 04:51:28;;;;;;;5.10;1.50;;;;;;;15.24;40.18;101524.89;1768546;81;20894;-85
2022/05/10 04:53:55;;;;;;;2.92;1.17;;;;;;;15.61;39.23;101531.73;1768099;81;20995;-85
2022/05/10 04:56:22;;;;;;;3.35;1.50;;;;;;;16.13;37.83;101531.34;1768900;81;20896;-87
2022/05/10 04:58:54;;;;;;;4.87;1.70;;;;;;;16.62;36.76;101523.09;1770000;81;21267;-86
2022/05/10 05:01:20;;;;;;;6.05;1.42;;;;;;;17.10;35.73;101524.53;1769487;81;21206;-86
2022/05/10 05:03:48;;;;;;;4.30;1.20;;;;;;;17.55;34.71;101532.20;1770673;78;20945;-85
2022/05/10 05:06:17;;;;;;;3.87;1.40;;;;;;;18.02;33.34;101533.56;1771662;78;20894;-84
2022/05/10 05:08:45;;;;;;;6.72;1.27;;;;;;;18.34;32.19;101536.39;1771550;78;20897;-82
2022/05/10 05:11:11;;;;;;;5.72;1.47;;;;;;;18.55;31.55;101539.16;1768928;80;22736;-85
2022/05/10 05:13:38;;;;;;;1.67;1.40;;;;;;;18.77;31.58;101537.45;1768597;81;20929;-84
2022/05/10 05:16:06;;;;;;;2.85;1.35;;;;;;;19.07;30.62;101531.98;1768486;80;21490;-84
2022/05/10 05:18:33;;;;;;;4.70;1.32;;;;;;;19.37;29.86;101532.63;1768333;81;20885;-85
2022/05/10 05:20:59;;;;;;;3.20;1.65;;;;;;;19.68;29.21;101540.22;1768466;81;20920;-86
2022/05/10 05:23:26;;;;;;;5.92;1.77;;;;;;;20.04;29.40;101538.94;1769102;81;21195;-86
2022/05/10 05:25:53;;;;;;;2.42;1.35;;;;;;;20.40;28.94;101538.56;1768370;81;20909;-85
2022/05/10 05:28:20;;;;;;;5.83;1.52;;;;;;;20.61;27.72;101539.39;1768803;81;20876;-83
2022/05/10 05:30:47;;;;;;;2.20;1.15;;;;;;;20.80;27.45;101539.92;1768650;81;20873;-86
2022/05/10 05:33:14;;;;;;;1.75;1.20;;;;;;;21.01;27.30;101534.98;1768622;81;21394;-85
2022/05/10 05:35:42;;;;;;;2.65;1.37;;;;;;;21.17;26.56;101540.64;1768220;81;21155;-85
2022/05/10 05:38:12;;;;;;;3.87;1.50;;;;;;;21.38;27.12;101535.66;1768290;81;20978;-83
2022/05/10 05:40:40;;;;;;;4.05;1.30;;;;;;;21.58;26.62;101540.05;1769634;81;20897;-86
2022/05/10 05:43:07;;;;;;;3.67;1.35;;;;;;;21.71;26.00;101531.25;1770505;81;20944;-85
2022/05/10 05:45:37;;;;;;;4.95;1.17;;;;;;;21.90;25.81;101529.55;1791368;80;20954;-82
2022/05/10 05:48:07;;;;;;;5.03;1.65;;;;;;;22.23;25.82;101535.37;1753967;82;21291;-85
2022/05/10 05:50:42;;;;;;;2.58;1.98;;;;;;;22.46;25.16;101532.70;1735550;82;21282;-85
2022/05/10 05:53:20;;;;;;;4.00;1.60;;;;;;;22.76;24.70;101531.55;1722166;82;20900;-85
2022/05/10 05:55:48;;;;;;;3.55;1.82;;;;;;;22.79;24.16;101530.43;1747890;82;21171;-85
2022/05/10 05:58:20;;;;;;;2.85;1.45;;;;;;;22.89;24.86;101532.53;1752199;82;20960;-86
2022/05/10 06:00:52;;;;;;;3.83;1.40;;;;;;;23.09;24.86;101529.77;1738244;82;22882;-87
2022/05/10 06:03:22;;;;;;;1.98;1.22;;;;;;;23.31;24.05;101521.78;1743863;82;20904;-87
2022/05/10 06:05:51;;;;;;;2.25;1.60;;;;;;;23.34;23.64;101521.47;1752282;82;20864;-86
2022/05/10 06:08:21;;;;;;;1.90;1.30;;;;;;;23.34;24.14;101522.33;1748161;81;20995;-88
2022/05/10 06:11:07;;;;;;;3.35;1.65;;;;;;;23.53;23.98;101514.61;1751399;82;21327;-86
2022/05/10 06:16:26;;;;;;;2.12;1.20;;;;;;;23.59;23.03;101519.86;1512904;93;21670;-87
2022/05/10 06:18:59;;;;;;;2.87;1.25;;;;;;;23.40;22.94;101512.83;1526419;92;21082;-87
2022/05/10 06:21:40;;;;;;;3.72;1.30;;;;;;;23.20;23.34;101514.82;1531777;92;21497;-86
2022/05/10 06:24:10;;;;;;;3.27;1.10;;;;;;;23.37;23.60;101511.30;1530904;92;21269;-87
2022/05/10 06:26:37;;;;;;;3.33;1.62;;;;;;;23.73;23.06;101513.09;1534109;93;21240;-85
2022/05/10 06:29:03;;;;;;;5.58;2.15;;;;;;;24.08;22.77;101509.98;1534183;92;21145;-85
2022/05/10 06:31:31;;;;;;;4.40;1.50;;;;;;;24.44;21.41;101511.19;1534694;93;21060;-87
2022/05/10 06:33:59;;;;;;;7.30;1.37;;;;;;;24.73;21.11;101507.63;1534338;93;21034;-85
2022/05/10 06:36:28;;;;;;;4.12;1.05;;;;;;;24.81;21.51;101502.77;1534615;93;21086;-83
2022/05/10 06:38:54;;;;;;;2.15;1.35;;;;;;;25.02;21.15;101503.67;1534741;93;21279;-86
2022/05/10 06:41:20;;;;;;;4.50;1.15;;;;;;;25.28;20.71;101495.99;1534661;93;21432;-86
2022/05/10 06:43:47;;;;;;;2.52;1.50;;;;;;;25.50;20.01;101497.17;1533301;91;21160;-85
2022/05/10 06:46:19;;;;;;;3.75;1.20;;;;;;;25.76;20.03;101496.98;1527755;93;20993;-87
2022/05/10 06:48:47;;;;;;;4.87;1.47;;;;;;;26.01;20.06;101495.97;1528485;94;21050;-86
2022/05/10 06:51:15;;;;;;;3.50;1.60;;;;;;;26.19;20.13;101493.53;1528335;94;21262;-87
2022/05/10 06:53:42;;;;;;;2.90;1.20;;;;;;;26.38;19.87;101499.02;1552697;90;20928;-86
2022/05/10 06:56:09;;;;;;;4.83;1.27;;;;;;;26.52;19.20;101496.09;1576027;90;20944;-86
2022/05/10 06:58:36;;;;;;;5.53;1.20;;;;;;;26.56;18.96;101493.42;1620062;87;20980;-85
2022/05/10 07:01:04;;;;;;;2.85;1.10;;;;;;;26.57;19.24;101482.49;1659432;86;20989;-87
2022/05/10 07:03:34;;;;;;;1.52;0.90;;;;;;;26.64;18.75;101485.31;1705011;82;21253;-87
2022/05/10 07:06:04;;;;;;;2.47;0.80;;;;;;;26.72;18.49;101483.08;1750635;82;21133;-87
2022/05/10 07:08:31;;;;;;;1.67;0.90;;;;;;;26.57;18.94;101481.63;1750383;82;20935;-87
2022/05/10 07:10:58;;;;;;;3.10;0.90;;;;;;;26.52;18.91;101479.44;1750452;82;20944;-86
2022/05/10 07:13:28;;;;;;;2.08;0.70;;;;;;;26.50;18.83;101477.43;1750375;82;20936;-87
2022/05/10 07:15:58;;;;;;;1.05;0.60;;;;;;;26.58;18.76;101479.29;1750383;81;21742;-85
2022/05/10 07:18:25;;;;;;;1.40;1.02;;;;;;;26.74;18.62;101480.53;1750594;82;20979;-85
2022/05/10 07:20:52;;;;;;;2.20;1.02;;;;;;;26.70;17.90;101469.78;1750586;82;20861;-85
2022/05/10 07:23:29;;;;;;;3.67;1.00;;;;;;;26.54;17.96;101473.89;1750356;82;20912;-84
2022/05/10 07:25:58;;;;;;;2.12;1.10;;;;;;;26.70;18.76;101462.23;1750820;82;20999;-85
2022/05/10 07:28:24;;;;;;;0.95;0.80;;;;;;;26.99;18.47;101466.91;1751145;82;21207;-85
2022/05/10 07:30:51;;;;;;;2.00;1.00;;;;;;;27.19;17.96;101461.39;1750768;82;20860;-86
2022/05/10 07:33:19;;;;;;;1.40;0.88;;;;;;;27.09;18.29;101459.44;1750751;82;20947;-86
2022/05/10 07:38:35;;;;;;;0.93;0.78;;;;;;;26.82;18.78;101462.99;1750839;81;20895;-87
2022/05/10 07:41:01;;;;;;;6.12;1.30;;;;;;;26.45;18.39;101463.16;1750711;82;21800;-87
2022/05/10 07:43:28;;;;;;;1.72;1.00;;;;;;;26.42;18.45;101458.66;1750830;81;20928;-87
2022/05/10 07:45:56;;;;;;;2.58;0.80;;;;;;;26.44;18.62;101450.74;1774048;80;21319;-88
2022/05/10 07:48:26;;;;;;;1.32;0.55;;;;;;;26.69;18.77;101448.45;1739330;82;20948;-86
2022/05/10 07:50:55;;;;;;;0.90;0.75;;;;;;;26.80;17.51;101441.31;1776062;80;21350;-86
2022/05/10 07:53:21;;;;;;;1.95;1.05;;;;;;;26.91;16.41;101444.11;1740248;82;21864;-87
2022/05/10 07:55:47;;;;;;;1.95;0.72;;;;;;;26.88;16.57;101441.27;1776195;80;20955;-86
2022/05/10 07:58:14;;;;;;;1.60;1.20;;;;;;;26.80;17.05;101442.66;1739183;82;21436;-87
2022/05/10 08:00:41;;;;;;;4.97;0.88;;;;;;;26.80;16.80;101450.73;1776147;80;20861;-86
2022/05/10 08:03:15;;;;;;;1.72;0.85;;;;;;;26.71;16.72;101438.35;1776765;80;20960;-87
2022/05/10 08:05:43;;;;;;;0.75;0.50;;;;;;;26.57;17.11;101440.80;1776749;80;21245;-86
2022/05/10 08:08:14;;;;;;;2.15;0.72;;;;;;;26.36;16.64;101440.53;1775781;80;20889;-87
2022/05/10 08:10:41;;;;;;;1.72;0.80;;;;;;;26.01;16.44;101440.86;1775926;80;21275;-85
2022/05/10 08:13:12;;;;;;;2.92;0.80;;;;;;;25.51;16.93;101431.20;1776174;80;20975;-85
2022/05/10 08:15:39;;;;;;;0.80;0.70;;;;;;;25.22;17.46;101429.89;1776146;80;21445;-87
2022/05/10 08:18:06;;;;;;;6.45;1.07;;;;;;;25.19;17.64;101432.05;1776899;80;21272;-85
2022/05/10 08:20:34;;;;;;;2.05;0.70;;;;;;;25.11;17.88;101430.70;1776057;80;20889;-88
2022/05/10 08:23:00;;;;;;;1.72;0.80;;;;;;;25.37;17.25;101418.48;1775951;80;21375;-87
2022/05/10 08:25:29;;;;;;;2.40;0.80;;;;;;;25.47;17.05;101415.09;1738902;82;20945;-88
2022/05/10 08:27:55;;;;;;;2.90;1.12;;;;;;;25.74;16.74;101419.73;1776262;80;20888;-89
2022/05/10 08:30:25;;;;;;;0.95;0.60;;;;;;;25.90;16.90;101417.05;1738955;82;21253;-87
2022/05/10 08:32:52;;;;;;;3.45;0.80;;;;;;;25.70;16.40;101417.92;1775708;80;20849;-87
2022/05/10 08:35:20;;;;;;;1.45;0.50;;;;;;;25.23;17.11;101415.47;1739635;82;20952;-87
2022/05/10 08:37:46;;;;;;;1.50;0.90;;;;;;;24.74;17.35;101417.25;1776510;80;20991;-87
2022/05/10 08:40:37;;;;;;;4.62;0.70;;;;;;;24.74;17.75;101411.88;1739358;82;20912;-87
2022/05/10 08:43:12;;;;;;;2.83;0.85;;;;;;;24.83;17.65;101404.17;1770830;80;21175;-87
2022/05/10 08:45:44;;;;;;;3.98;0.65;;;;;;;25.19;17.87;101395.81;1781694;80;20916;-88
2022/05/10 08:48:11;;;;;;;1.22;0.90;;;;;;;25.62;16.73;101396.44;1784572;80;20915;-89
2022/05/10 08:50:38;;;;;;;17.50;1.50;;;;;;;25.66;16.85;101399.11;1784807;80;20988;-91
2022/05/10 08:53:07;;;;;;;3.22;0.90;;;;;;;25.92;16.02;101389.97;1783030;80;20982;-86
2022/05/10 08:55:39;;;;;;;1.72;0.90;;;;;;;25.74;16.08;101397.73;1785903;80;21387;-87
2022/05/10 08:58:35;;;;;;;2.98;0.70;;;;;;;25.78;15.50;101390.17;1786027;78;21922;-83
2022/05/10 09:01:03;;;;;;;2.15;0.70;;;;;;;25.89;15.62;101385.79;1786679;80;21346;-86
2022/05/10 09:04:11;;;;;;;1.72;0.68;;;;;;;25.84;16.31;101378.22;1786836;80;21007;-85
2022/05/10 09:07:04;;;;;;;10.50;1.17;;;;;;;25.91;15.95;101378.39;1785314;80;20955;-87
2022/05/10 09:09:58;;;;;;;2.70;0.55;;;;;;;26.08;15.77;101376.97;1781888;80;20876;-89
2022/05/10 09:12:25;;;;;;;2.85;0.70;;;;;;;26.22;14.63;101382.44;1785436;80;20936;-87
2022/05/10 09:15:03;;;;;;;1.02;0.65;;;;;;;26.37;15.40;101366.88;1785054;80;20884;-89
2022/05/10 09:17:39;;;;;;;0.75;0.62;;;;;;;26.54;14.19;101367.11;1781611;80;21406;-85
2022/05/10 09:20:14;;;;;;;1.37;1.27;;;;;;;26.50;14.70;101356.89;1784229;80;20892;-86
2022/05/10 09:23:24;;;;;;;2.10;0.80;;;;;;;26.15;14.63;101359.97;1781855;80;20967;-85
2022/05/10 09:25:55;;;;;;;9.35;1.32;;;;;;;25.91;14.64;101363.61;1747157;81;20888;-86
2022/05/10 09:28:37;;;;;;;5.08;1.00;;;;;;;25.76;15.07;101358.60;1747121;82;21411;-86
2022/05/10 09:37:17;;;;;;;2.58;0.88;;;;;;;25.87;14.86;101339.92;1746810;82;21843;-85
2022/05/10 09:39:49;;;;;;;13.50;1.72;;;;;;;25.45;15.13;101344.59;1722134;82;20922;-86
2022/05/10 09:42:35;;;;;;;13.85;1.35;;;;;;;25.37;15.41;101337.92;1701463;82;20954;-88
2022/05/10 09:45:16;;;;;;;3.30;1.75;;;;;;;25.20;15.66;101337.94;1747567;81;20937;-88
2022/05/10 09:48:03;;;;;;;3.65;1.07;;;;;;;25.30;16.09;101332.88;1749373;82;21482;-88
2022/05/10 09:50:46;;;;;;;1.42;0.75;;;;;;;25.57;16.12;101342.40;1743624;81;21443;-87
2022/05/10 09:53:32;;;;;;;;;;;;;;;25.83;15.83;101333.56;1752029;81;21320;-85
2022/05/10 09:56:13;;;;;;;3.85;3.27;;;;;;;26.03;15.76;101327.28;1749210;82;20130;-85
2022/05/10 09:58:43;;;;;;;5.10;1.77;;;;;;;26.27;15.32;101321.41;1749433;81;20985;-85
2022/05/10 10:01:13;;;;;;;4.37;0.98;;;;;;;26.34;15.22;101321.02;1749648;81;21085;-84
2022/05/10 10:03:43;;;;;;;10.25;0.70;;;;;;;26.04;15.33;101324.08;1749265;82;21570;-85
2022/05/10 10:06:24;;;;;;;3.00;0.90;;;;;;;25.50;15.68;101322.11;1749595;81;20941;-86
2022/05/10 10:08:56;;;;;;;11.95;1.80;;;;;;;25.18;16.34;101325.67;1749881;81;20906;-84
2022/05/10 10:11:28;;;;;;;4.17;1.10;;;;;;;24.85;16.56;101328.89;1749355;81;20953;-87
2022/05/10 10:14:09;;;;;;;2.00;1.02;;;;;;;24.41;16.80;101316.59;1749635;82;20894;-85
2022/05/10 10:16:50;;;;;;;2.22;1.72;;;;;;;24.03;16.87;101315.34;1749424;82;21244;-87
2022/05/10 10:19:38;;;;;;;1.55;0.93;;;;;;;23.79;17.07;101316.97;1749052;81;20957;-85
2022/05/10 10:22:14;;;;;;;1.90;1.05;;;;;;;23.50;17.49;101299.88;1777069;80;20888;-84
2022/05/10 10:25:18;;;;;;;3.08;1.25;;;;;;;23.16;17.63;101306.05;1785487;80;20935;-85
2022/05/10 10:28:10;;;;;;;2.55;1.50;;;;;;;22.96;17.77;101296.86;1780512;80;20991;-86
2022/05/10 10:30:41;;;;;;;12.15;10.88;;;;;;;23.17;18.12;101293.03;1786796;80;21247;-85
2022/05/10 10:33:36;;;;;;;1.57;1.10;;;;;;;23.47;18.46;101285.48;1786333;80;20927;-86
2022/05/10 10:36:20;;;;;;;5.05;1.50;;;;;;;23.44;17.55;101285.81;1786219;80;20892;-86
2022/05/10 10:38:55;;;;;;;5.37;3.30;;;;;;;23.25;17.50;101286.36;1785563;80;20908;-85
2022/05/10 10:41:36;;;;;;;1.90;1.32;;;;;;;22.88;16.88;101287.96;1786545;80;20898;-86
2022/05/10 10:44:22;;;;;;;1.40;0.65;;;;;;;22.42;17.66;101281.39;1770915;80;21247;-85
2022/05/10 10:47:22;;;;;;;2.60;1.62;;;;;;;22.03;18.43;101283.00;1776684;79;20935;-86
2022/05/10 10:50:11;;;;;;;1.27;0.70;;;;;;;21.82;18.60;101275.24;1775824;80;20877;-85
2022/05/10 10:52:38;;;;;;;14.63;3.40;;;;;;;21.58;19.21;101260.27;1775760;80;20940;-87
2022/05/10 10:55:06;;;;;;;3.62;1.30;;;;;;;21.49;20.28;101272.17;1775854;80;20960;-86
2022/05/10 10:57:57;;;;;;;2.65;0.93;;;;;;;21.27;18.69;101275.17;1775702;80;21152;-85
2022/05/10 11:00:31;;;;;;;1.32;1.10;;;;;;;21.00;18.67;101258.63;1773526;80;20959;-87
2022/05/10 11:03:35;;;;;;;5.87;0.80;;;;;;;20.80;19.62;101260.50;1777145;80;20979;-87
2022/05/10 11:06:26;;;;;;;2.80;0.98;;;;;;;20.68;19.55;101267.82;1736209;82;20956;-85
2022/05/10 11:09:20;;;;;;;1.27;0.70;;;;;;;20.55;19.33;101261.91;1776758;80;20916;-86
2022/05/10 11:12:29;;;;;;;1.92;0.85;;;;;;;20.32;19.78;101260.00;1776374;80;21307;-87
2022/05/10 11:15:07;;;;;;;2.77;1.00;;;;;;;20.08;19.70;101254.11;1776552;80;20975;-86
2022/05/10 11:18:13;;;;;;;2.15;0.98;;;;;;;20.27;20.57;101249.27;1773179;80;21007;-84
2022/05/10 11:21:11;;;;;;;3.83;1.15;;;;;;;20.58;20.16;101245.66;1775916;80;21627;-88
2022/05/10 11:23:52;;;;;;;4.70;0.70;;;;;;;20.76;20.03;101239.10;1775807;80;21465;-87
2022/05/10 11:26:39;;;;;;;4.15;1.00;;;;;;;20.83;19.89;101240.20;1775659;80;21298;-86
2022/05/10 11:29:19;;;;;;;3.60;0.70;;;;;;;20.82;19.80;101237.20;1775844;80;20972;-86
2022/05/10 11:31:59;;;;;;;3.30;0.90;;;;;;;20.79;19.76;101238.84;1775764;80;20999;-85
2022/05/10 11:34:59;;;;;;;3.02;1.37;;;;;;;20.65;20.04;101234.77;1774343;80;21409;-86
2022/05/10 11:37:34;;;;;;;0.85;0.60;;;;;;;20.43;20.46;101235.41;1775806;80;20944;-85
2022/05/10 11:40:31;;;;;;;4.05;0.85;;;;;;;20.26;20.59;101220.13;1775524;80;21326;-84
2022/05/10 11:43:38;;;;;;;3.87;0.72;;;;;;;20.20;20.90;101213.53;1775931;80;20951;-84
2022/05/10 11:46:40;;;;;;;5.78;1.07;;;;;;;20.23;19.84;101215.93;1775695;80;20975;-85
2022/05/10 11:49:32;;;;;;;2.40;1.05;;;;;;;20.24;20.67;101211.44;1775967;80;20979;-82
2022/05/10 11:52:33;;;;;;;5.22;1.70;;;;;;;20.37;21.22;101211.16;1775161;80;20932;-85
2022/05/10 11:55:31;;;;;;;1.95;1.00;;;;;;;20.47;20.90;101195.98;1775100;80;21863;-86
2022/05/10 11:58:04;;;;;;;8.15;1.05;;;;;;;20.57;21.59;101192.86;1738586;82;20929;-84
2022/05/10 12:00:36;;;;;;;1.62;0.80;;;;;;;20.59;21.51;101192.22;1775771;80;20940;-86
2022/05/10 12:03:13;;;;;;;3.92;0.68;;;;;;;20.55;21.06;101196.13;1776323;80;20897;-84
2022/05/10 12:05:41;;;;;;;1.60;1.27;;;;;;;20.39;20.62;101185.22;1732399;80;20912;-84
2022/05/10 12:08:25;;;;;;;2.85;1.50;;;;;;;20.27;21.26;101184.01;1778413;80;21169;-83
2022/05/10 12:10:53;;;;;;;3.00;1.55;;;;;;;20.24;21.53;101180.31;1778722;80;20920;-84
2022/05/10 12:22:16;;;;;;;6.60;1.05;;;;;;;20.02;21.12;101179.27;1775912;80;21252;-86
2022/05/10 12:24:50;;;;;;;2.55;1.27;;;;;;;19.86;20.99;101190.47;1775687;80;21013;-85
2022/05/10 12:27:32;;;;;;;1.90;0.98;;;;;;;19.63;20.53;101179.18;1775706;80;20920;-85
2022/05/10 12:30:05;;;;;;;1.50;0.75;;;;;;;19.56;21.30;101173.56;1739001;82;20873;-85